sensor_id;sensor_type;location;lat;lon;timestamp;temperature;humidity
71672;DHT22;67659;45.554;11.812;2023-02-12T00:00:39;4.70;55.50
71672;DHT22;67659;45.554;11.812;2023-02-12T00:03:05;4.70;55.50
71672;DHT22;67659;45.554;11.812;2023-02-12T00:05:31;4.70;56.20
71672;DHT22;67659;45.554;11.812;2023-02-12T00:07:57;4.50;55.70
71672;DHT22;67659;45.554;11.812;2023-02-12T00:10:23;4.70;55.60
71672;DHT22;67659;45.554;11.812;2023-02-12T00:12:49;4.60;55.50
71672;DHT22;67659;45.554;11.812;2023-02-12T00:15:14;4.40;57.60
71672;DHT22;67659;45.554;11.812;2023-02-12T00:17:40;4.20;72.50
71672;DHT22;67659;45.554;11.812;2023-02-12T00:20:07;4.20;60.90
71672;DHT22;67659;45.554;11.812;2023-02-12T00:22:32;3.90;71.80
71672;DHT22;67659;45.554;11.812;2023-02-12T00:24:58;3.70;77.70
71672;DHT22;67659;45.554;11.812;2023-02-12T00:27:24;3.60;76.50
71672;DHT22;67659;45.554;11.812;2023-02-12T00:29:50;3.90;73.20
71672;DHT22;67659;45.554;11.812;2023-02-12T00:32:16;4.20;71.70
71672;DHT22;67659;45.554;11.812;2023-02-12T00:34:47;4.00;62.10
71672;DHT22;67659;45.554;11.812;2023-02-12T00:37:14;4.20;70.50
71672;DHT22;67659;45.554;11.812;2023-02-12T00:39:40;4.20;70.70
71672;DHT22;67659;45.554;11.812;2023-02-12T00:42:06;4.00;72.90
71672;DHT22;67659;45.554;11.812;2023-02-12T00:44:32;4.00;71.80
71672;DHT22;67659;45.554;11.812;2023-02-12T00:46:58;4.20;63.30
71672;DHT22;67659;45.554;11.812;2023-02-12T00:49:28;4.50;62.90
71672;DHT22;67659;45.554;11.812;2023-02-12T00:51:53;4.40;61.50
71672;DHT22;67659;45.554;11.812;2023-02-12T00:54:19;4.40;62.50
71672;DHT22;67659;45.554;11.812;2023-02-12T00:56:45;4.20;63.20
71672;DHT22;67659;45.554;11.812;2023-02-12T00:59:11;4.20;71.90
71672;DHT22;67659;45.554;11.812;2023-02-12T01:01:36;4.20;71.60
71672;DHT22;67659;45.554;11.812;2023-02-12T01:04:03;3.90;62.00
71672;DHT22;67659;45.554;11.812;2023-02-12T01:06:28;3.80;71.60
71672;DHT22;67659;45.554;11.812;2023-02-12T01:08:54;3.70;75.40
71672;DHT22;67659;45.554;11.812;2023-02-12T01:11:20;3.80;72.80
71672;DHT22;67659;45.554;11.812;2023-02-12T01:13:46;3.80;73.60
71672;DHT22;67659;45.554;11.812;2023-02-12T01:18:41;3.90;72.90
71672;DHT22;67659;45.554;11.812;2023-02-12T01:21:12;3.80;73.10
71672;DHT22;67659;45.554;11.812;2023-02-12T01:23:38;3.90;77.60
71672;DHT22;67659;45.554;11.812;2023-02-12T01:26:05;3.50;82.70
71672;DHT22;67659;45.554;11.812;2023-02-12T01:28:32;2.90;84.30
71672;DHT22;67659;45.554;11.812;2023-02-12T01:30:58;2.90;84.80
71672;DHT22;67659;45.554;11.812;2023-02-12T01:33:24;3.00;85.20
71672;DHT22;67659;45.554;11.812;2023-02-12T01:35:49;3.20;83.90
71672;DHT22;67659;45.554;11.812;2023-02-12T01:38:15;3.30;84.30
71672;DHT22;67659;45.554;11.812;2023-02-12T01:40:41;3.50;81.40
71672;DHT22;67659;45.554;11.812;2023-02-12T01:43:11;3.70;78.90
71672;DHT22;67659;45.554;11.812;2023-02-12T01:45:44;3.50;81.00
71672;DHT22;67659;45.554;11.812;2023-02-12T01:48:12;3.50;78.60
71672;DHT22;67659;45.554;11.812;2023-02-12T01:50:38;3.70;76.50
71672;DHT22;67659;45.554;11.812;2023-02-12T01:53:04;3.60;77.50
71672;DHT22;67659;45.554;11.812;2023-02-12T01:55:30;3.40;77.90
71672;DHT22;67659;45.554;11.812;2023-02-12T01:57:56;3.40;78.00
71672;DHT22;67659;45.554;11.812;2023-02-12T02:00:23;3.50;76.80
71672;DHT22;67659;45.554;11.812;2023-02-12T02:02:56;3.40;76.20
71672;DHT22;67659;45.554;11.812;2023-02-12T02:08:08;3.70;76.40
71672;DHT22;67659;45.554;11.812;2023-02-12T02:10:34;3.60;74.30
71672;DHT22;67659;45.554;11.812;2023-02-12T02:13:00;3.60;73.80
71672;DHT22;67659;45.554;11.812;2023-02-12T02:15:47;3.40;73.10
71672;DHT22;67659;45.554;11.812;2023-02-12T02:18:29;3.50;72.20
71672;DHT22;67659;45.554;11.812;2023-02-12T02:24:57;3.70;72.10
71672;DHT22;67659;45.554;11.812;2023-02-12T02:27:41;2.90;74.90
71672;DHT22;67659;45.554;11.812;2023-02-12T02:30:21;2.70;79.30
71672;DHT22;67659;45.554;11.812;2023-02-12T02:35:44;3.10;74.70
71672;DHT22;67659;45.554;11.812;2023-02-12T02:38:22;3.20;74.40
71672;DHT22;67659;45.554;11.812;2023-02-12T02:43:34;3.40;73.00
71672;DHT22;67659;45.554;11.812;2023-02-12T02:46:12;3.40;72.40
71672;DHT22;67659;45.554;11.812;2023-02-12T02:48:47;3.40;72.50
71672;DHT22;67659;45.554;11.812;2023-02-12T02:51:26;3.50;72.40
71672;DHT22;67659;45.554;11.812;2023-02-12T02:54:00;3.30;72.20
71672;DHT22;67659;45.554;11.812;2023-02-12T02:56:29;3.30;71.60
71672;DHT22;67659;45.554;11.812;2023-02-12T02:59:01;3.30;71.70
71672;DHT22;67659;45.554;11.812;2023-02-12T03:07:04;3.30;63.20
71672;DHT22;67659;45.554;11.812;2023-02-12T03:13:20;3.10;71.40
71672;DHT22;67659;45.554;11.812;2023-02-12T03:16:07;3.10;72.90
71672;DHT22;67659;45.554;11.812;2023-02-12T03:19:08;3.10;73.80
71672;DHT22;67659;45.554;11.812;2023-02-12T03:21:56;3.20;72.20
71672;DHT22;67659;45.554;11.812;2023-02-12T03:24:39;3.30;62.80
71672;DHT22;67659;45.554;11.812;2023-02-12T03:27:22;2.60;72.30
71672;DHT22;67659;45.554;11.812;2023-02-12T03:29:52;2.30;75.80
71672;DHT22;67659;45.554;11.812;2023-02-12T03:34:48;2.50;75.60
71672;DHT22;67659;45.554;11.812;2023-02-12T03:40:22;2.80;74.10
71672;DHT22;67659;45.554;11.812;2023-02-12T03:48:40;2.80;73.90
71672;DHT22;67659;45.554;11.812;2023-02-12T03:53:51;2.70;74.70
71672;DHT22;67659;45.554;11.812;2023-02-12T03:56:24;2.80;73.80
71672;DHT22;67659;45.554;11.812;2023-02-12T03:58:52;2.90;73.00
71672;DHT22;67659;45.554;11.812;2023-02-12T04:01:18;2.90;71.90
71672;DHT22;67659;45.554;11.812;2023-02-12T04:03:44;2.60;73.90
71672;DHT22;67659;45.554;11.812;2023-02-12T04:06:36;2.40;71.90
71672;DHT22;67659;45.554;11.812;2023-02-12T04:09:06;2.20;74.40
71672;DHT22;67659;45.554;11.812;2023-02-12T04:11:42;2.30;74.70
71672;DHT22;67659;45.554;11.812;2023-02-12T04:30:33;2.20;77.10
71672;DHT22;67659;45.554;11.812;2023-02-12T04:33:06;2.40;75.30
71672;DHT22;67659;45.554;11.812;2023-02-12T04:38:41;2.60;72.60
71672;DHT22;67659;45.554;11.812;2023-02-12T04:41:08;2.50;74.80
71672;DHT22;67659;45.554;11.812;2023-02-12T04:43:36;2.50;74.60
71672;DHT22;67659;45.554;11.812;2023-02-12T04:46:03;2.40;74.10
71672;DHT22;67659;45.554;11.812;2023-02-12T04:48:30;2.30;75.50
71672;DHT22;67659;45.554;11.812;2023-02-12T04:50:56;2.30;78.00
71672;DHT22;67659;45.554;11.812;2023-02-12T04:53:22;2.10;77.20
71672;DHT22;67659;45.554;11.812;2023-02-12T04:55:48;2.30;75.50
71672;DHT22;67659;45.554;11.812;2023-02-12T04:58:15;2.50;74.70
71672;DHT22;67659;45.554;11.812;2023-02-12T05:00:41;2.60;74.30
71672;DHT22;67659;45.554;11.812;2023-02-12T05:03:07;2.40;73.50
71672;DHT22;67659;45.554;11.812;2023-02-12T05:05:33;2.30;72.60
71672;DHT22;67659;45.554;11.812;2023-02-12T05:07:59;2.10;71.50
71672;DHT22;67659;45.554;11.812;2023-02-12T05:10:25;1.90;73.20
71672;DHT22;67659;45.554;11.812;2023-02-12T05:12:52;2.00;73.70
71672;DHT22;67659;45.554;11.812;2023-02-12T05:15:17;2.20;73.10
71672;DHT22;67659;45.554;11.812;2023-02-12T05:17:43;2.30;73.90
71672;DHT22;67659;45.554;11.812;2023-02-12T05:20:10;2.40;74.20
71672;DHT22;67659;45.554;11.812;2023-02-12T05:22:36;2.30;74.90
71672;DHT22;67659;45.554;11.812;2023-02-12T05:25:03;2.40;76.70
71672;DHT22;67659;45.554;11.812;2023-02-12T05:27:29;2.40;79.10
71672;DHT22;67659;45.554;11.812;2023-02-12T05:29:55;2.40;82.70
71672;DHT22;67659;45.554;11.812;2023-02-12T05:32:22;2.30;84.00
71672;DHT22;67659;45.554;11.812;2023-02-12T05:34:47;2.10;84.60
71672;DHT22;67659;45.554;11.812;2023-02-12T05:37:13;2.20;84.50
71672;DHT22;67659;45.554;11.812;2023-02-12T05:39:39;2.10;84.70
71672;DHT22;67659;45.554;11.812;2023-02-12T05:42:05;2.10;84.30
71672;DHT22;67659;45.554;11.812;2023-02-12T05:44:31;2.00;85.50
71672;DHT22;67659;45.554;11.812;2023-02-12T05:46:57;2.00;85.20
71672;DHT22;67659;45.554;11.812;2023-02-12T05:49:22;2.10;84.30
71672;DHT22;67659;45.554;11.812;2023-02-12T05:51:48;2.00;84.50
71672;DHT22;67659;45.554;11.812;2023-02-12T05:54:14;2.30;83.50
71672;DHT22;67659;45.554;11.812;2023-02-12T05:56:46;2.40;82.20
71672;DHT22;67659;45.554;11.812;2023-02-12T05:59:15;2.20;82.40
71672;DHT22;67659;45.554;11.812;2023-02-12T06:01:42;2.40;80.00
71672;DHT22;67659;45.554;11.812;2023-02-12T06:04:18;2.40;78.80
71672;DHT22;67659;45.554;11.812;2023-02-12T06:06:44;2.30;79.80
71672;DHT22;67659;45.554;11.812;2023-02-12T06:09:11;2.40;79.60
71672;DHT22;67659;45.554;11.812;2023-02-12T06:11:38;2.30;78.30
71672;DHT22;67659;45.554;11.812;2023-02-12T06:14:05;2.40;75.90
71672;DHT22;67659;45.554;11.812;2023-02-12T06:16:32;1.60;84.00
71672;DHT22;67659;45.554;11.812;2023-02-12T06:19:01;1.60;83.50
71672;DHT22;67659;45.554;11.812;2023-02-12T06:21:29;1.80;82.00
71672;DHT22;67659;45.554;11.812;2023-02-12T06:23:55;1.90;80.90
71672;DHT22;67659;45.554;11.812;2023-02-12T06:26:22;2.10;79.20
71672;DHT22;67659;45.554;11.812;2023-02-12T06:28:48;2.20;82.60
71672;DHT22;67659;45.554;11.812;2023-02-12T06:31:20;2.40;80.90
71672;DHT22;67659;45.554;11.812;2023-02-12T06:33:46;2.50;79.30
71672;DHT22;67659;45.554;11.812;2023-02-12T06:36:12;2.80;78.60
71672;DHT22;67659;45.554;11.812;2023-02-12T06:38:37;2.80;76.40
71672;DHT22;67659;45.554;11.812;2023-02-12T06:41:04;2.80;77.00
71672;DHT22;67659;45.554;11.812;2023-02-12T06:43:30;2.60;75.70
71672;DHT22;67659;45.554;11.812;2023-02-12T06:45:58;2.70;74.20
71672;DHT22;67659;45.554;11.812;2023-02-12T06:48:24;2.70;75.20
71672;DHT22;67659;45.554;11.812;2023-02-12T06:50:50;2.50;75.80
71672;DHT22;67659;45.554;11.812;2023-02-12T06:53:16;2.50;77.00
71672;DHT22;67659;45.554;11.812;2023-02-12T06:55:41;3.10;74.90
71672;DHT22;67659;45.554;11.812;2023-02-12T06:58:07;3.40;74.20
71672;DHT22;67659;45.554;11.812;2023-02-12T07:00:33;3.80;73.40
71672;DHT22;67659;45.554;11.812;2023-02-12T07:02:59;4.60;63.10
71672;DHT22;67659;45.554;11.812;2023-02-12T07:05:24;6.10;57.40
71672;DHT22;67659;45.554;11.812;2023-02-12T07:07:50;7.10;50.10
71672;DHT22;67659;45.554;11.812;2023-02-12T07:10:17;7.60;47.70
71672;DHT22;67659;45.554;11.812;2023-02-12T07:12:45;8.70;46.20
71672;DHT22;67659;45.554;11.812;2023-02-12T07:15:11;9.40;45.00
71672;DHT22;67659;45.554;11.812;2023-02-12T07:17:37;10.10;44.40
71672;DHT22;67659;45.554;11.812;2023-02-12T07:20:04;10.90;42.70
71672;DHT22;67659;45.554;11.812;2023-02-12T07:22:30;11.50;39.10
71672;DHT22;67659;45.554;11.812;2023-02-12T07:24:56;12.60;40.00
71672;DHT22;67659;45.554;11.812;2023-02-12T07:27:21;13.50;36.90
71672;DHT22;67659;45.554;11.812;2023-02-12T07:29:47;14.10;36.00
71672;DHT22;67659;45.554;11.812;2023-02-12T07:32:13;14.70;34.90
71672;DHT22;67659;45.554;11.812;2023-02-12T07:34:39;15.20;33.80
71672;DHT22;67659;45.554;11.812;2023-02-12T07:37:05;16.10;31.30
71672;DHT22;67659;45.554;11.812;2023-02-12T07:39:31;16.60;30.70
71672;DHT22;67659;45.554;11.812;2023-02-12T07:41:57;17.10;30.00
71672;DHT22;67659;45.554;11.812;2023-02-12T07:44:23;17.50;29.40
71672;DHT22;67659;45.554;11.812;2023-02-12T07:46:49;17.90;28.60
71672;DHT22;67659;45.554;11.812;2023-02-12T07:49:20;18.40;26.40
71672;DHT22;67659;45.554;11.812;2023-02-12T07:51:47;18.80;25.70
71672;DHT22;67659;45.554;11.812;2023-02-12T07:54:14;18.30;24.90
71672;DHT22;67659;45.554;11.812;2023-02-12T07:56:41;18.70;26.00
71672;DHT22;67659;45.554;11.812;2023-02-12T07:59:10;19.40;25.50
71672;DHT22;67659;45.554;11.812;2023-02-12T08:01:41;19.80;24.60
71672;DHT22;67659;45.554;11.812;2023-02-12T08:04:10;20.20;23.90
71672;DHT22;67659;45.554;11.812;2023-02-12T08:06:38;20.60;22.30
71672;DHT22;67659;45.554;11.812;2023-02-12T08:09:07;21.00;20.80
71672;DHT22;67659;45.554;11.812;2023-02-12T08:11:34;21.20;20.10
71672;DHT22;67659;45.554;11.812;2023-02-12T08:14:01;21.40;18.00
71672;DHT22;67659;45.554;11.812;2023-02-12T08:16:28;21.70;19.70
71672;DHT22;67659;45.554;11.812;2023-02-12T08:18:55;21.60;19.00
71672;DHT22;67659;45.554;11.812;2023-02-12T08:21:25;21.90;19.00
71672;DHT22;67659;45.554;11.812;2023-02-12T08:23:55;22.40;18.60
71672;DHT22;67659;45.554;11.812;2023-02-12T08:26:34;22.30;16.50
71672;DHT22;67659;45.554;11.812;2023-02-12T08:29:07;22.80;18.30
71672;DHT22;67659;45.554;11.812;2023-02-12T08:31:36;23.10;17.70
71672;DHT22;67659;45.554;11.812;2023-02-12T08:34:03;23.30;18.00
71672;DHT22;67659;45.554;11.812;2023-02-12T08:36:34;23.20;15.60
71672;DHT22;67659;45.554;11.812;2023-02-12T08:39:00;23.10;16.40
71672;DHT22;67659;45.554;11.812;2023-02-12T08:41:28;23.20;17.40
71672;DHT22;67659;45.554;11.812;2023-02-12T08:43:57;24.10;15.60
71672;DHT22;67659;45.554;11.812;2023-02-12T08:46:25;24.20;14.30
71672;DHT22;67659;45.554;11.812;2023-02-12T08:48:56;23.90;14.20
71672;DHT22;67659;45.554;11.812;2023-02-12T08:51:25;24.40;15.20
71672;DHT22;67659;45.554;11.812;2023-02-12T08:53:54;24.90;15.00
71672;DHT22;67659;45.554;11.812;2023-02-12T08:56:20;25.60;14.50
71672;DHT22;67659;45.554;11.812;2023-02-12T08:58:46;26.30;13.50
71672;DHT22;67659;45.554;11.812;2023-02-12T09:01:21;26.60;13.00
71672;DHT22;67659;45.554;11.812;2023-02-12T09:03:47;26.40;13.70
71672;DHT22;67659;45.554;11.812;2023-02-12T09:06:15;27.00;12.60
71672;DHT22;67659;45.554;11.812;2023-02-12T09:08:42;26.80;10.80
71672;DHT22;67659;45.554;11.812;2023-02-12T09:11:13;26.60;12.80
71672;DHT22;67659;45.554;11.812;2023-02-12T09:13:44;27.50;12.30
71672;DHT22;67659;45.554;11.812;2023-02-12T09:16:11;27.60;12.20
71672;DHT22;67659;45.554;11.812;2023-02-12T09:18:37;28.10;10.40
71672;DHT22;67659;45.554;11.812;2023-02-12T09:21:06;28.20;11.20
71672;DHT22;67659;45.554;11.812;2023-02-12T09:23:32;28.30;9.70
71672;DHT22;67659;45.554;11.812;2023-02-12T09:25:58;29.00;9.10
71672;DHT22;67659;45.554;11.812;2023-02-12T09:28:24;29.60;8.60
71672;DHT22;67659;45.554;11.812;2023-02-12T09:30:50;29.70;8.70
71672;DHT22;67659;45.554;11.812;2023-02-12T09:33:16;29.30;8.50
71672;DHT22;67659;45.554;11.812;2023-02-12T09:35:42;29.50;8.70
71672;DHT22;67659;45.554;11.812;2023-02-12T09:38:08;30.20;7.90
71672;DHT22;67659;45.554;11.812;2023-02-12T09:41:01;30.20;7.10
71672;DHT22;67659;45.554;11.812;2023-02-12T09:43:38;30.10;6.80
71672;DHT22;67659;45.554;11.812;2023-02-12T09:48:47;30.30;7.10
71672;DHT22;67659;45.554;11.812;2023-02-12T09:51:16;30.60;7.20
71672;DHT22;67659;45.554;11.812;2023-02-12T09:53:45;30.40;6.60
71672;DHT22;67659;45.554;11.812;2023-02-12T09:56:17;30.60;5.80
71672;DHT22;67659;45.554;11.812;2023-02-12T09:58:57;30.10;5.60
71672;DHT22;67659;45.554;11.812;2023-02-12T10:01:25;30.00;5.00
71672;DHT22;67659;45.554;11.812;2023-02-12T10:03:52;29.70;6.70
71672;DHT22;67659;45.554;11.812;2023-02-12T10:06:21;29.70;6.30
71672;DHT22;67659;45.554;11.812;2023-02-12T10:25:42;29.40;7.10
71672;DHT22;67659;45.554;11.812;2023-02-12T10:28:18;29.70;6.10
71672;DHT22;67659;45.554;11.812;2023-02-12T10:30:50;30.20;6.70
71672;DHT22;67659;45.554;11.812;2023-02-12T10:33:34;29.80;6.30
71672;DHT22;67659;45.554;11.812;2023-02-12T10:36:13;29.40;6.40
71672;DHT22;67659;45.554;11.812;2023-02-12T10:38:46;30.10;5.90
71672;DHT22;67659;45.554;11.812;2023-02-12T10:41:15;30.80;6.30
71672;DHT22;67659;45.554;11.812;2023-02-12T10:43:41;30.70;4.70
71672;DHT22;67659;45.554;11.812;2023-02-12T10:46:16;30.50;5.30
71672;DHT22;67659;45.554;11.812;2023-02-12T10:48:48;31.00;5.80
71672;DHT22;67659;45.554;11.812;2023-02-12T10:54:40;31.70;4.90
71672;DHT22;67659;45.554;11.812;2023-02-12T10:57:10;31.60;5.10
71672;DHT22;67659;45.554;11.812;2023-02-12T10:59:37;31.30;4.90
71672;DHT22;67659;45.554;11.812;2023-02-12T11:02:14;31.80;5.40
71672;DHT22;67659;45.554;11.812;2023-02-12T11:04:42;32.10;5.70
71672;DHT22;67659;45.554;11.812;2023-02-12T11:07:09;32.50;5.00
71672;DHT22;67659;45.554;11.812;2023-02-12T11:09:40;32.80;5.10
71672;DHT22;67659;45.554;11.812;2023-02-12T11:12:27;33.10;4.00
71672;DHT22;67659;45.554;11.812;2023-02-12T11:14:57;32.90;4.20
71672;DHT22;67659;45.554;11.812;2023-02-12T11:17:38;32.60;3.70
71672;DHT22;67659;45.554;11.812;2023-02-12T11:22:52;30.90;3.20
71672;DHT22;67659;45.554;11.812;2023-02-12T11:25:20;31.10;4.10
71672;DHT22;67659;45.554;11.812;2023-02-12T11:28:02;31.40;3.90
71672;DHT22;67659;45.554;11.812;2023-02-12T11:30:29;31.60;4.30
71672;DHT22;67659;45.554;11.812;2023-02-12T11:33:14;31.90;4.00
71672;DHT22;67659;45.554;11.812;2023-02-12T11:35:53;32.10;3.70
71672;DHT22;67659;45.554;11.812;2023-02-12T11:38:28;32.50;3.20
71672;DHT22;67659;45.554;11.812;2023-02-12T11:40:58;33.00;3.30
71672;DHT22;67659;45.554;11.812;2023-02-12T11:43:25;32.30;2.30
71672;DHT22;67659;45.554;11.812;2023-02-12T11:45:53;32.60;3.40
71672;DHT22;67659;45.554;11.812;2023-02-12T11:48:26;33.10;3.10
71672;DHT22;67659;45.554;11.812;2023-02-12T11:50:55;32.80;3.30
71672;DHT22;67659;45.554;11.812;2023-02-12T11:53:33;32.70;2.90
71672;DHT22;67659;45.554;11.812;2023-02-12T11:56:11;32.90;2.80
71672;DHT22;67659;45.554;11.812;2023-02-12T11:58:38;33.10;3.40
71672;DHT22;67659;45.554;11.812;2023-02-12T12:01:24;33.50;3.50
71672;DHT22;67659;45.554;11.812;2023-02-12T12:06:47;31.30;1.30
71672;DHT22;67659;45.554;11.812;2023-02-12T12:09:25;30.30;2.40
71672;DHT22;67659;45.554;11.812;2023-02-12T12:12:24;29.60;1.20
71672;DHT22;67659;45.554;11.812;2023-02-12T12:21:22;29.90;3.70
71672;DHT22;67659;45.554;11.812;2023-02-12T12:24:19;30.80;3.40
71672;DHT22;67659;45.554;11.812;2023-02-12T12:26:46;29.90;3.10
71672;DHT22;67659;45.554;11.812;2023-02-12T12:29:54;28.80;2.80
71672;DHT22;67659;45.554;11.812;2023-02-12T12:32:23;28.60;3.60
71672;DHT22;67659;45.554;11.812;2023-02-12T12:34:51;29.50;3.10
71672;DHT22;67659;45.554;11.812;2023-02-12T12:43:00;29.70;3.40
71672;DHT22;67659;45.554;11.812;2023-02-12T12:45:48;30.80;3.20
71672;DHT22;67659;45.554;11.812;2023-02-12T12:48:41;30.10;2.30
71672;DHT22;67659;45.554;11.812;2023-02-12T13:01:42;30.50;2.50
71672;DHT22;67659;45.554;11.812;2023-02-12T13:04:53;30.90;2.10
71672;DHT22;67659;45.554;11.812;2023-02-12T13:10:27;29.10;2.20
71672;DHT22;67659;45.554;11.812;2023-02-12T13:13:06;28.20;2.70
71672;DHT22;67659;45.554;11.812;2023-02-12T13:21:46;27.80;2.40
71672;DHT22;67659;45.554;11.812;2023-02-12T13:24:36;27.00;1.90
71672;DHT22;67659;45.554;11.812;2023-02-12T13:27:07;26.50;3.10
71672;DHT22;67659;45.554;11.812;2023-02-12T13:29:40;26.80;2.10
71672;DHT22;67659;45.554;11.812;2023-02-12T13:32:28;27.10;2.50
71672;DHT22;67659;45.554;11.812;2023-02-12T13:34:55;26.70;3.10
71672;DHT22;67659;45.554;11.812;2023-02-12T13:39:58;24.70;3.60
71672;DHT22;67659;45.554;11.812;2023-02-12T13:42:31;25.50;3.40
71672;DHT22;67659;45.554;11.812;2023-02-12T13:47:49;24.00;4.60
71672;DHT22;67659;45.554;11.812;2023-02-12T13:58:54;25.40;4.20
71672;DHT22;67659;45.554;11.812;2023-02-12T14:11:59;23.70;6.20
71672;DHT22;67659;45.554;11.812;2023-02-12T14:14:36;23.70;7.10
71672;DHT22;67659;45.554;11.812;2023-02-12T14:37:58;20.50;12.60
71672;DHT22;67659;45.554;11.812;2023-02-12T14:45:48;19.10;14.40
71672;DHT22;67659;45.554;11.812;2023-02-12T14:51:05;18.90;14.70
71672;DHT22;67659;45.554;11.812;2023-02-12T14:53:35;18.70;15.10
71672;DHT22;67659;45.554;11.812;2023-02-12T14:56:02;18.50;15.20
71672;DHT22;67659;45.554;11.812;2023-02-12T14:58:31;18.40;16.00
71672;DHT22;67659;45.554;11.812;2023-02-12T15:00:58;18.20;15.60
71672;DHT22;67659;45.554;11.812;2023-02-12T15:03:42;18.10;18.00
71672;DHT22;67659;45.554;11.812;2023-02-12T15:06:20;17.90;19.00
71672;DHT22;67659;45.554;11.812;2023-02-12T15:09:06;17.70;18.80
71672;DHT22;67659;45.554;11.812;2023-02-12T15:11:40;17.70;18.90
71672;DHT22;67659;45.554;11.812;2023-02-12T15:16:54;17.60;19.80
71672;DHT22;67659;45.554;11.812;2023-02-12T15:21:59;17.50;19.40
71672;DHT22;67659;45.554;11.812;2023-02-12T15:24:26;17.60;19.40
71672;DHT22;67659;45.554;11.812;2023-02-12T15:27:01;17.60;19.60
71672;DHT22;67659;45.554;11.812;2023-02-12T15:29:30;17.60;20.10
71672;DHT22;67659;45.554;11.812;2023-02-12T15:32:05;17.50;19.30
71672;DHT22;67659;45.554;11.812;2023-02-12T15:34:33;17.50;19.90
71672;DHT22;67659;45.554;11.812;2023-02-12T15:37:03;17.40;20.90
71672;DHT22;67659;45.554;11.812;2023-02-12T15:39:43;17.30;21.00
71672;DHT22;67659;45.554;11.812;2023-02-12T15:42:35;17.30;21.30
71672;DHT22;67659;45.554;11.812;2023-02-12T15:45:17;17.20;21.90
71672;DHT22;67659;45.554;11.812;2023-02-12T15:47:45;17.10;22.00
71672;DHT22;67659;45.554;11.812;2023-02-12T15:50:19;17.00;21.90
71672;DHT22;67659;45.554;11.812;2023-02-12T15:52:48;17.00;21.90
71672;DHT22;67659;45.554;11.812;2023-02-12T15:55:26;16.80;21.90
71672;DHT22;67659;45.554;11.812;2023-02-12T15:57:58;16.70;22.90
71672;DHT22;67659;45.554;11.812;2023-02-12T16:02:56;16.60;22.80
71672;DHT22;67659;45.554;11.812;2023-02-12T16:05:22;16.40;23.10
71672;DHT22;67659;45.554;11.812;2023-02-12T16:07:49;16.40;23.50
71672;DHT22;67659;45.554;11.812;2023-02-12T16:10:17;16.40;23.60
71672;DHT22;67659;45.554;11.812;2023-02-12T16:12:44;16.40;23.40
71672;DHT22;67659;45.554;11.812;2023-02-12T16:15:29;16.20;23.80
71672;DHT22;67659;45.554;11.812;2023-02-12T16:17:55;16.20;23.70
71672;DHT22;67659;45.554;11.812;2023-02-12T16:20:25;16.10;24.00
71672;DHT22;67659;45.554;11.812;2023-02-12T16:22:52;16.10;24.10
71672;DHT22;67659;45.554;11.812;2023-02-12T16:25:28;16.00;24.80
71672;DHT22;67659;45.554;11.812;2023-02-12T16:28:06;15.90;24.90
71672;DHT22;67659;45.554;11.812;2023-02-12T16:30:38;15.70;26.00
71672;DHT22;67659;45.554;11.812;2023-02-12T16:38:57;15.20;27.60
71672;DHT22;67659;45.554;11.812;2023-02-12T16:41:34;15.20;28.00
71672;DHT22;67659;45.554;11.812;2023-02-12T16:44:20;14.90;27.90
71672;DHT22;67659;45.554;11.812;2023-02-12T16:46:54;14.80;28.10
71672;DHT22;67659;45.554;11.812;2023-02-12T16:49:23;14.70;28.60
71672;DHT22;67659;45.554;11.812;2023-02-12T16:51:51;14.40;28.90
71672;DHT22;67659;45.554;11.812;2023-02-12T16:54:36;14.30;29.40
71672;DHT22;67659;45.554;11.812;2023-02-12T16:57:02;14.00;29.90
71672;DHT22;67659;45.554;11.812;2023-02-12T16:59:28;13.80;29.90
71672;DHT22;67659;45.554;11.812;2023-02-12T17:02:11;13.60;30.60
71672;DHT22;67659;45.554;11.812;2023-02-12T17:04:44;13.50;31.00
71672;DHT22;67659;45.554;11.812;2023-02-12T17:07:23;13.30;31.30
71672;DHT22;67659;45.554;11.812;2023-02-12T17:09:52;13.10;31.80
71672;DHT22;67659;45.554;11.812;2023-02-12T17:12:18;13.10;31.20
71672;DHT22;67659;45.554;11.812;2023-02-12T17:14:45;13.00;31.40
71672;DHT22;67659;45.554;11.812;2023-02-12T17:17:11;12.80;32.10
71672;DHT22;67659;45.554;11.812;2023-02-12T17:19:36;12.80;32.40
71672;DHT22;67659;45.554;11.812;2023-02-12T17:22:03;12.80;32.60
71672;DHT22;67659;45.554;11.812;2023-02-12T17:24:31;12.70;32.50
71672;DHT22;67659;45.554;11.812;2023-02-12T17:27:01;12.70;32.90
71672;DHT22;67659;45.554;11.812;2023-02-12T17:29:27;12.50;34.40
71672;DHT22;67659;45.554;11.812;2023-02-12T17:31:59;12.40;36.30
71672;DHT22;67659;45.554;11.812;2023-02-12T17:34:26;12.40;35.00
71672;DHT22;67659;45.554;11.812;2023-02-12T17:36:52;12.30;35.90
71672;DHT22;67659;45.554;11.812;2023-02-12T17:39:22;12.20;35.50
71672;DHT22;67659;45.554;11.812;2023-02-12T17:42:21;12.10;35.20
71672;DHT22;67659;45.554;11.812;2023-02-12T17:44:56;11.90;35.90
71672;DHT22;67659;45.554;11.812;2023-02-12T17:47:26;11.80;35.70
71672;DHT22;67659;45.554;11.812;2023-02-12T17:49:56;11.70;35.70
71672;DHT22;67659;45.554;11.812;2023-02-12T17:52:22;11.50;35.50
71672;DHT22;67659;45.554;11.812;2023-02-12T17:54:49;11.30;36.00
71672;DHT22;67659;45.554;11.812;2023-02-12T17:57:24;11.20;36.80
71672;DHT22;67659;45.554;11.812;2023-02-12T17:59:51;11.20;36.80
71672;DHT22;67659;45.554;11.812;2023-02-12T18:02:27;11.40;36.90
71672;DHT22;67659;45.554;11.812;2023-02-12T18:04:53;11.10;37.10
71672;DHT22;67659;45.554;11.812;2023-02-12T18:07:20;10.90;37.50
71672;DHT22;67659;45.554;11.812;2023-02-12T18:09:47;10.70;37.50
71672;DHT22;67659;45.554;11.812;2023-02-12T18:12:14;10.80;37.60
71672;DHT22;67659;45.554;11.812;2023-02-12T18:14:41;10.90;37.50
71672;DHT22;67659;45.554;11.812;2023-02-12T18:17:09;10.70;37.20
71672;DHT22;67659;45.554;11.812;2023-02-12T18:19:39;10.60;37.80
71672;DHT22;67659;45.554;11.812;2023-02-12T18:22:06;10.70;38.00
71672;DHT22;67659;45.554;11.812;2023-02-12T18:24:36;10.60;38.20
71672;DHT22;67659;45.554;11.812;2023-02-12T18:27:04;10.50;38.20
71672;DHT22;67659;45.554;11.812;2023-02-12T18:29:33;10.40;38.60
71672;DHT22;67659;45.554;11.812;2023-02-12T18:32:00;10.40;38.60
71672;DHT22;67659;45.554;11.812;2023-02-12T18:34:26;10.40;39.40
71672;DHT22;67659;45.554;11.812;2023-02-12T18:36:53;10.30;39.20
71672;DHT22;67659;45.554;11.812;2023-02-12T18:39:20;10.20;39.00
71672;DHT22;67659;45.554;11.812;2023-02-12T18:41:48;10.10;39.30
71672;DHT22;67659;45.554;11.812;2023-02-12T18:44:15;10.00;39.40
71672;DHT22;67659;45.554;11.812;2023-02-12T18:46:42;10.10;40.00
71672;DHT22;67659;45.554;11.812;2023-02-12T18:49:10;10.10;40.20